Time;durP1;ratioP1;P1;durP2;ratioP2;P2;SDS_P1;SDS_P2;PMS_P1;PMS_P2;Temp;Humidity;BMP_temperature;BMP_pressure;BME280_temperature;BME280_humidity;BME280_pressure;Samples;Min_cycle;Max_cycle;Signal;HPM_P1;HPM_P2
2023/04/29 00:01:29;;;;;;;;;;;;;;;19.98;42.91;101326.41;5129680;28;19946;-68
2023/04/29 00:03:55;;;;;;;;;;;;;;;19.98;43.13;101332.66;5128694;28;19915;-68
2023/04/29 00:06:20;;;;;;;;;;;;;;;19.96;42.94;101329.28;5128822;28;19937;-68
2023/04/29 00:08:45;;;;;;;;;;;;;;;19.96;42.86;101344.59;5133437;28;19915;-68
2023/04/29 00:11:10;;;;;;;;;;;;;;;19.94;42.94;101339.38;5127984;27;20144;-68
2023/04/29 00:13:36;;;;;;;;;;;;;;;19.94;43.11;101336.69;5136320;28;19947;-68
2023/04/29 00:16:01;;;;;;;;;;;;;;;19.94;43.14;101343.94;5132043;28;19928;-69
2023/04/29 00:18:27;;;;;;;;;;;;;;;19.93;42.89;101339.56;5133233;27;19911;-68
2023/04/29 00:20:52;;;;;;;;;;;;;;;19.92;43.18;101344.13;5137102;27;19946;-68
2023/04/29 00:23:17;;;;;;;;;;;;;;;19.91;43.14;101342.41;5134841;27;19920;-68
2023/04/29 00:25:42;;;;;;;;;;;;;;;19.90;43.04;101359.63;5132882;27;19927;-68
2023/04/29 00:28:07;;;;;;;;;;;;;;;19.90;43.01;101356.91;5132261;27;20375;-68
2023/04/29 00:30:33;;;;;;;;;;;;;;;19.89;42.98;101357.09;5134259;27;19971;-68
2023/04/29 00:32:58;;;;;;;;;;;;;;;19.88;43.24;101358.94;5127575;27;19911;-68
2023/04/29 00:35:23;;;;;;;;;;;;;;;19.87;42.91;101361.78;5135962;27;19968;-68
2023/04/29 00:37:48;;;;;;;;;;;;;;;19.85;43.18;101363.81;5132659;27;19912;-68
2023/04/29 00:40:14;;;;;;;;;;;;;;;19.85;42.93;101372.75;5135400;27;19912;-68
2023/04/29 00:42:39;;;;;;;;;;;;;;;19.85;43.20;101371.91;5138458;27;19915;-68
2023/04/29 00:45:05;;;;;;;;;;;;;;;19.83;43.18;101374.75;5133097;27;19915;-68
2023/04/29 00:47:30;;;;;;;;;;;;;;;19.83;42.93;101380.16;5138418;27;19962;-68
2023/04/29 00:49:55;;;;;;;;;;;;;;;19.81;42.95;101371.41;5132999;27;19923;-68
2023/04/29 00:52:20;;;;;;;;;;;;;;;19.82;43.08;101377.63;5137057;27;19953;-68
2023/04/29 00:54:45;;;;;;;;;;;;;;;19.81;43.08;101389.44;5134040;27;20372;-68
2023/04/29 00:57:11;;;;;;;;;;;;;;;19.81;43.00;101386.75;5114216;27;19923;-69
2023/04/29 00:59:36;;;;;;;;;;;;;;;19.80;42.95;101391.31;5132141;27;19981;-68
2023/04/29 01:02:02;;;;;;;;;;;;;;;19.79;42.97;101399.53;5127447;27;19915;-68
2023/04/29 01:04:28;;;;;;;;;;;;;;;19.78;42.97;101403.25;5132422;27;19912;-68
2023/04/29 01:06:53;;;;;;;;;;;;;;;19.77;43.21;101407.81;5128189;27;19918;-68
2023/04/29 01:09:24;;;;;;;;;;;;;;;19.77;42.98;101410.50;5138839;27;19993;-68
2023/04/29 01:11:54;;;;;;;;;;;;;;;19.75;42.93;101403.56;5130661;27;19912;-68
2023/04/29 01:14:20;;;;;;;;;;;;;;;19.75;42.90;101406.25;5138755;27;19920;-68
2023/04/29 01:16:51;;;;;;;;;;;;;;;19.75;43.23;101408.97;5114621;27;19913;-68
2023/04/29 01:19:17;;;;;;;;;;;;;;;19.73;43.06;101409.13;5129270;27;19922;-68
2023/04/29 01:21:47;;;;;;;;;;;;;;;19.72;42.96;101419.09;5136002;27;20022;-68
2023/04/29 01:24:12;;;;;;;;;;;;;;;19.72;42.93;101412.84;5131856;27;20387;-68
2023/04/29 01:26:38;;;;;;;;;;;;;;;19.71;42.94;101416.56;5131961;27;19919;-68
2023/04/29 01:29:33;;;;;;;;;;;;;;;19.70;43.04;101421.09;5111053;27;19911;-68
2023/04/29 01:32:03;;;;;;;;;;;;;;;19.69;43.09;101418.56;5016652;28;19918;-68
2023/04/29 01:34:28;;;;;;;;;;;;;;;19.67;42.94;101424.13;5021839;28;20016;-68
2023/04/29 01:37:09;;;;;;;;;;;;;;;19.67;43.22;101421.44;5023314;28;19961;-68
2023/04/29 01:39:45;;;;;;;;;;;;;;;19.67;43.00;101429.53;5007482;28;19920;-68
2023/04/29 01:42:13;;;;;;;;;;;;;;;19.65;43.20;101431.53;5020608;28;19913;-68
2023/04/29 01:44:38;;;;;;;;;;;;;;;19.65;43.21;101427.97;5016214;28;19924;-68
2023/04/29 01:47:03;;;;;;;;;;;;;;;19.64;43.21;101440.63;5013520;28;19949;-68
2023/04/29 01:49:28;;;;;;;;;;;;;;;19.64;42.92;101439.78;5014875;28;19941;-68
2023/04/29 01:51:54;;;;;;;;;;;;;;;19.62;43.10;101445.31;5018431;28;19913;-68
2023/04/29 01:54:19;;;;;;;;;;;;;;;19.62;43.05;101444.47;5019987;28;19914;-68
2023/04/29 01:56:45;;;;;;;;;;;;;;;19.62;43.16;101449.88;5022276;28;19917;-68
2023/04/29 01:59:10;;;;;;;;;;;;;;;19.60;43.12;101447.31;5018658;28;19910;-68
2023/04/29 02:01:36;;;;;;;;;;;;;;;19.60;43.00;101449.16;5022555;28;19924;-68
2023/04/29 02:04:01;;;;;;;;;;;;;;;19.60;42.93;101454.56;5026163;28;19917;-68
2023/04/29 02:06:27;;;;;;;;;;;;;;;19.59;43.18;101456.41;5012819;28;19957;-68
2023/04/29 02:08:52;;;;;;;;;;;;;;;19.58;43.15;101454.75;5105060;27;19918;-68
2023/04/29 02:11:17;;;;;;;;;;;;;;;19.57;43.18;101458.41;5133916;27;20348;-68
2023/04/29 02:13:42;;;;;;;;;;;;;;;19.56;43.15;101462.13;5133126;27;19923;-68
2023/04/29 02:16:11;;;;;;;;;;;;;;;19.55;43.06;101468.53;5135289;27;20336;-68
2023/04/29 02:18:36;;;;;;;;;;;;;;;19.55;42.83;101468.53;5130791;27;19911;-68
2023/04/29 02:21:01;;;;;;;;;;;;;;;19.55;43.00;101473.09;5131817;27;19922;-69
2023/04/29 02:23:27;;;;;;;;;;;;;;;19.53;43.05;101478.63;5128583;27;20942;-68
2023/04/29 02:25:52;;;;;;;;;;;;;;;19.53;43.01;101486.72;5132302;27;19931;-68
2023/04/29 02:28:17;;;;;;;;;;;;;;;19.52;43.28;101482.31;5129895;27;19923;-68
2023/04/29 02:30:42;;;;;;;;;;;;;;;19.51;43.04;101483.34;5132395;27;19934;-68
2023/04/29 02:33:07;;;;;;;;;;;;;;;19.51;43.18;101486.03;5132437;27;20008;-68
2023/04/29 02:35:33;;;;;;;;;;;;;;;19.50;43.16;101489.75;5135090;27;19912;-68
2023/04/29 02:37:58;;;;;;;;;;;;;;;19.48;42.80;101497.97;5133925;27;19912;-68
2023/04/29 02:40:24;;;;;;;;;;;;;;;19.48;43.05;101495.28;5130566;27;20002;-68
2023/04/29 02:42:49;;;;;;;;;;;;;;;19.48;43.06;101502.53;5136197;27;19912;-68
2023/04/29 02:45:15;;;;;;;;;;;;;;;19.47;43.11;101506.22;5128640;27;20739;-68
2023/04/29 02:47:40;;;;;;;;;;;;;;;19.46;43.00;101508.09;5132545;27;19960;-68
2023/04/29 02:50:05;;;;;;;;;;;;;;;19.46;42.87;101510.78;5133613;27;19912;-68
2023/04/29 02:52:30;;;;;;;;;;;;;;;19.45;43.11;101514.50;5131081;27;19967;-68
2023/04/29 02:54:56;;;;;;;;;;;;;;;19.44;42.99;101512.78;5130640;27;20426;-68
2023/04/29 02:57:21;;;;;;;;;;;;;;;19.44;43.16;101514.63;5130804;27;20032;-68
2023/04/29 02:59:46;;;;;;;;;;;;;;;19.43;43.03;101521.03;5131901;28;19916;-68
2023/04/29 03:02:11;;;;;;;;;;;;;;;19.42;43.26;101522.88;5136953;27;19951;-68
2023/04/29 03:04:38;;;;;;;;;;;;;;;19.42;43.03;101532.84;5135739;27;19946;-68
2023/04/29 03:07:04;;;;;;;;;;;;;;;19.40;42.99;101532.97;5127764;28;20660;-68
2023/04/29 03:09:29;;;;;;;;;;;;;;;19.40;43.29;101538.38;5139734;27;19976;-68
2023/04/29 03:11:55;;;;;;;;;;;;;;;19.39;43.14;101539.38;5130533;28;19915;-68
2023/04/29 03:14:20;;;;;;;;;;;;;;;19.39;42.80;101541.22;5129115;28;19919;-68
2023/04/29 03:16:45;;;;;;;;;;;;;;;19.38;43.16;101537.69;5133727;28;19912;-68
2023/04/29 03:19:10;;;;;;;;;;;;;;;19.37;43.28;101538.69;5130143;28;19912;-68
2023/04/29 03:21:36;;;;;;;;;;;;;;;19.35;42.95;101535.28;5128874;28;19912;-68
2023/04/29 03:24:01;;;;;;;;;;;;;;;19.37;43.12;101540.53;5128368;28;20418;-68
2023/04/29 03:26:26;;;;;;;;;;;;;;;19.35;43.05;101546.09;5131549;28;19919;-68
2023/04/29 03:28:51;;;;;;;;;;;;;;;19.34;42.98;101543.56;5128946;28;20394;-68
2023/04/29 03:31:19;;;;;;;;;;;;;;;19.34;42.91;101551.63;5131706;28;19943;-68
2023/04/29 03:33:44;;;;;;;;;;;;;;;19.33;42.87;101550.81;5111473;28;20482;-69
2023/04/29 03:36:09;;;;;;;;;;;;;;;19.33;43.15;101549.97;5136044;28;19915;-68
2023/04/29 03:38:34;;;;;;;;;;;;;;;19.32;43.00;101554.47;5133474;27;19912;-68
2023/04/29 03:41:00;;;;;;;;;;;;;;;19.32;43.24;101548.25;5129154;28;20320;-69
2023/04/29 03:43:25;;;;;;;;;;;;;;;19.31;43.15;101549.25;5115078;28;19918;-68
2023/04/29 03:45:50;;;;;;;;;;;;;;;19.31;43.25;101551.94;5125336;28;19916;-68
2023/04/29 03:48:15;;;;;;;;;;;;;;;19.30;43.01;101550.25;5128585;28;19968;-68
2023/04/29 03:50:40;;;;;;;;;;;;;;;19.29;42.94;101552.09;5134397;27;19912;-68
2023/04/29 03:53:07;;;;;;;;;;;;;;;19.29;43.04;101552.09;5133564;27;19912;-68
2023/04/29 03:55:32;;;;;;;;;;;;;;;19.29;43.00;101559.34;5115008;27;19950;-68
2023/04/29 03:57:57;;;;;;;;;;;;;;;19.28;43.15;101558.47;5131574;27;19915;-68
2023/04/29 04:00:25;;;;;;;;;;;;;;;19.27;43.21;101564.88;5134619;27;19920;-68
2023/04/29 04:02:50;;;;;;;;;;;;;;;19.29;43.03;101570.13;5136745;27;19919;-68
2023/04/29 04:05:18;;;;;;;;;;;;;;;19.27;43.24;101567.56;5138952;27;19919;-68
2023/04/29 04:07:43;;;;;;;;;;;;;;;19.27;43.18;101578.38;5133497;27;19933;-68
2023/04/29 04:10:08;;;;;;;;;;;;;;;19.27;43.21;101582.91;5136633;27;19916;-68
2023/04/29 04:12:33;;;;;;;;;;;;;;;19.26;42.97;101576.69;5132669;27;19919;-68
2023/04/29 04:14:59;;;;;;;;;;;;;;;19.26;43.02;101589.31;5132382;27;19924;-68
2023/04/29 04:17:24;;;;;;;;;;;;;;;19.25;43.20;101587.63;5135155;27;19949;-68
2023/04/29 04:19:49;;;;;;;;;;;;;;;19.26;43.08;101592.00;5132994;27;19989;-68
2023/04/29 04:22:15;;;;;;;;;;;;;;;19.26;43.02;101590.16;5132927;27;19983;-69
2023/04/29 04:24:42;;;;;;;;;;;;;;;19.25;42.99;101595.72;5134028;27;20544;-68
2023/04/29 04:27:08;;;;;;;;;;;;;;;19.25;43.10;101593.88;5135212;27;20263;-68
2023/04/29 04:29:33;;;;;;;;;;;;;;;19.25;43.06;101598.41;5138625;27;19967;-68
2023/04/29 04:31:58;;;;;;;;;;;;;;;19.25;43.11;101598.41;5141022;27;19911;-68
2023/04/29 04:34:23;;;;;;;;;;;;;;;19.25;43.03;101603.81;5112947;27;19922;-68
2023/04/29 04:36:49;;;;;;;;;;;;;;;19.25;43.23;101607.34;5137491;27;19919;-69
2023/04/29 04:39:14;;;;;;;;;;;;;;;19.26;43.28;101610.88;5134393;27;19983;-69
2023/04/29 04:41:39;;;;;;;;;;;;;;;19.25;43.24;101612.72;5132775;27;20601;-69
2023/04/29 04:44:05;;;;;;;;;;;;;;;19.27;43.34;101615.25;5133491;27;19912;-69
2023/04/29 04:46:30;;;;;;;;;;;;;;;19.27;43.34;101621.50;5133856;27;20352;-71
2023/04/29 04:48:55;;;;;;;;;;;;;;;19.28;43.79;101616.94;5130527;27;19942;-69
2023/04/29 04:51:20;;;;;;;;;;;;;;;19.28;43.81;101627.75;5134547;27;19919;-69
2023/04/29 04:53:45;;;;;;;;;;;;;;;19.28;43.69;101620.50;5135928;27;19916;-70
2023/04/29 04:56:11;;;;;;;;;;;;;;;19.29;43.85;101633.00;5133483;27;19923;-69
2023/04/29 04:58:36;;;;;;;;;;;;;;;19.30;43.61;101641.94;5138290;27;19948;-69
2023/04/29 05:01:01;;;;;;;;;;;;;;;19.31;43.84;101641.75;5134641;27;19983;-69
2023/04/29 05:03:26;;;;;;;;;;;;;;;19.31;43.83;101640.91;5133706;27;19947;-68
2023/04/29 05:05:55;;;;;;;;;;;;;;;19.32;44.09;101648.84;5135674;27;19943;-69
2023/04/29 05:08:20;;;;;;;;;;;;;;;19.32;43.96;101648.84;5131134;27;19916;-70
2023/04/29 05:10:45;;;;;;;;;;;;;;;19.33;43.88;101647.88;5115754;27;19926;-69
2023/04/29 05:13:10;;;;;;;;;;;;;;;19.34;44.04;101651.41;5131067;27;19919;-68
2023/04/29 05:15:36;;;;;;;;;;;;;;;19.34;43.91;101659.50;5131697;27;19959;-68
2023/04/29 05:18:01;;;;;;;;;;;;;;;19.35;44.05;101653.94;5131699;27;19992;-69
2023/04/29 05:20:26;;;;;;;;;;;;;;;19.35;44.19;101658.50;5135236;27;19915;-70
2023/04/29 05:22:51;;;;;;;;;;;;;;;19.37;44.26;101664.56;5133803;27;20008;-71
2023/04/29 05:25:16;;;;;;;;;;;;;;;19.37;44.33;101659.16;5136456;27;20007;-70
2023/04/29 05:27:42;;;;;;;;;;;;;;;19.38;44.35;101667.13;5133938;27;19930;-70
2023/04/29 05:30:07;;;;;;;;;;;;;;;19.40;44.16;101669.66;5132056;27;19916;-70
2023/04/29 05:32:32;;;;;;;;;;;;;;;19.41;44.12;101666.81;5138626;27;19912;-70
2023/04/29 05:34:57;;;;;;;;;;;;;;;19.42;44.32;101678.47;5132345;27;19919;-69
2023/04/29 05:37:23;;;;;;;;;;;;;;;19.43;44.10;101680.16;5115877;27;19919;-71
2023/04/29 05:39:48;;;;;;;;;;;;;;;19.45;44.11;101683.53;5131978;27;19912;-71
2023/04/29 05:42:13;;;;;;;;;;;;;;;19.46;44.50;101690.63;5132443;27;20719;-72
2023/04/29 05:44:38;;;;;;;;;;;;;;;19.47;44.33;101687.78;5132083;27;19973;-72
2023/04/29 05:47:04;;;;;;;;;;;;;;;19.49;43.95;101685.75;5132817;27;19923;-71
2023/04/29 05:49:29;;;;;;;;;;;;;;;19.51;44.19;101687.47;5136567;27;19931;-71
2023/04/29 05:51:54;;;;;;;;;;;;;;;19.52;44.05;101698.09;5133463;27;19919;-72
2023/04/29 05:54:19;;;;;;;;;;;;;;;19.54;44.03;101692.53;5135865;27;19933;-72
2023/04/29 05:56:45;;;;;;;;;;;;;;;19.55;43.98;101707.75;5131633;27;19916;-70
2023/04/29 05:59:10;;;;;;;;;;;;;;;19.57;44.14;101705.72;5140830;27;19919;-71
2023/04/29 06:01:35;;;;;;;;;;;;;;;19.58;44.07;101716.38;5112812;28;19911;-68
2023/04/29 06:04:00;;;;;;;;;;;;;;;19.60;43.98;101718.91;5134061;27;19916;-68
2023/04/29 06:06:25;;;;;;;;;;;;;;;19.60;44.04;101719.75;5133888;27;19916;-69
2023/04/29 06:08:51;;;;;;;;;;;;;;;19.62;44.07;101722.31;5133862;27;19931;-71
2023/04/29 06:11:17;;;;;;;;;;;;;;;19.61;43.76;101726.88;5122655;27;19941;-69
2023/04/29 06:13:42;;;;;;;;;;;;;;;19.64;44.07;101725.75;5132632;27;20014;-69
2023/04/29 06:16:10;;;;;;;;;;;;;;;19.65;43.93;101728.28;5131276;27;19923;-75
2023/04/29 06:18:35;;;;;;;;;;;;;;;19.66;43.52;101729.13;5111194;27;19922;-70
2023/04/29 06:21:00;;;;;;;;;;;;;;;19.68;43.76;101735.22;5121415;27;19920;-69
2023/04/29 06:23:25;;;;;;;;;;;;;;;19.69;43.39;101736.91;5129684;27;19979;-70
2023/04/29 06:25:51;;;;;;;;;;;;;;;19.70;43.38;101741.28;5139000;27;19911;-69
2023/04/29 06:28:16;;;;;;;;;;;;;;;19.71;43.72;101740.31;5129746;27;19923;-70
2023/04/29 06:30:41;;;;;;;;;;;;;;;19.72;43.25;101745.56;5131159;27;20009;-69
2023/04/29 06:33:07;;;;;;;;;;;;;;;19.72;43.30;101748.25;5132631;27;19937;-70
2023/04/29 06:35:32;;;;;;;;;;;;;;;19.75;43.49;101757.88;5130269;27;19922;-71
2023/04/29 06:37:57;;;;;;;;;;;;;;;19.77;43.15;101758.56;5131912;27;19919;-70
2023/04/29 06:40:22;;;;;;;;;;;;;;;19.77;43.55;101753.19;5132290;27;19912;-70
2023/04/29 06:42:48;;;;;;;;;;;;;;;19.80;43.28;101765.53;5132506;27;19916;-70
2023/04/29 06:45:13;;;;;;;;;;;;;;;19.80;43.25;101766.38;5129479;27;19945;-70
2023/04/29 06:47:39;;;;;;;;;;;;;;;19.80;43.42;101760.97;5133271;27;19951;-70
2023/04/29 06:50:04;;;;;;;;;;;;;;;19.82;43.22;101775.16;5132488;27;19919;-70
2023/04/29 06:52:30;;;;;;;;;;;;;;;19.82;43.12;101772.44;5134823;27;19923;-69
2023/04/29 06:54:56;;;;;;;;;;;;;;;19.84;43.14;101767.75;5135817;27;19912;-71
2023/04/29 06:57:21;;;;;;;;;;;;;;;19.85;43.30;101777.56;5130158;27;19962;-70
2023/04/29 06:59:46;;;;;;;;;;;;;;;19.86;43.21;101775.69;5119410;27;20046;-74
2023/04/29 07:02:12;;;;;;;;;;;;;;;19.86;42.96;101783.78;5135602;27;20482;-69
2023/04/29 07:04:37;;;;;;;;;;;;;;;19.88;42.93;101796.16;5129202;27;19912;-70
2023/04/29 07:07:03;;;;;;;;;;;;;;;19.88;42.85;101792.56;5133904;27;19919;-69
2023/04/29 07:09:28;;;;;;;;;;;;;;;19.89;42.84;101797.00;5132668;27;19920;-69
2023/04/29 07:11:54;;;;;;;;;;;;;;;19.90;43.11;101801.38;5135031;28;19922;-70
2023/04/29 07:14:21;;;;;;;;;;;;;;;19.91;42.88;101800.38;5132761;28;19916;-70
2023/04/29 07:16:46;;;;;;;;;;;;;;;19.92;42.81;101799.34;5133318;28;19958;-70
2023/04/29 07:19:11;;;;;;;;;;;;;;;19.93;42.70;101811.88;5130530;28;20420;-69
2023/04/29 07:21:37;;;;;;;;;;;;;;;19.93;42.76;101801.91;5125045;28;19916;-70
2023/04/29 07:24:03;;;;;;;;;;;;;;;19.93;42.89;101815.41;5131530;28;20361;-69
2023/04/29 07:26:28;;;;;;;;;;;;;;;19.94;42.68;101822.50;5138185;27;19911;-69
2023/04/29 07:28:54;;;;;;;;;;;;;;;19.95;42.71;101821.50;5135140;27;19927;-70
2023/04/29 07:31:19;;;;;;;;;;;;;;;19.96;42.55;101825.91;5135850;27;19916;-68
2023/04/29 07:33:46;;;;;;;;;;;;;;;19.97;42.92;101833.00;5137697;27;19960;-69
2023/04/29 07:36:11;;;;;;;;;;;;;;;19.98;42.70;101834.69;5134208;27;19915;-69
2023/04/29 07:38:36;;;;;;;;;;;;;;;19.99;42.90;101835.53;5135473;27;19916;-69
2023/04/29 07:41:03;;;;;;;;;;;;;;;20.00;42.57;101844.47;5134299;27;20008;-69
2023/04/29 07:43:28;;;;;;;;;;;;;;;20.00;42.66;101845.31;5135699;27;19923;-69
2023/04/29 07:45:53;;;;;;;;;;;;;;;20.02;42.65;101848.75;5136424;27;19919;-69
2023/04/29 07:48:20;;;;;;;;;;;;;;;20.03;42.87;101844.19;5139464;27;19931;-69
2023/04/29 07:50:45;;;;;;;;;;;;;;;20.03;42.77;101845.03;5139875;27;19912;-72
2023/04/29 07:53:10;;;;;;;;;;;;;;;20.04;42.83;101851.28;5137852;27;19911;-69
2023/04/29 07:55:36;;;;;;;;;;;;;;;20.05;42.83;101852.97;5138181;27;19919;-69
2023/04/29 07:58:01;;;;;;;;;;;;;;;20.07;42.68;101861.78;5132888;27;19972;-69
2023/04/29 08:00:27;;;;;;;;;;;;;;;20.08;42.68;101863.47;5136313;27;19934;-69
2023/04/29 08:02:52;;;;;;;;;;;;;;;20.09;42.69;101871.44;5134559;27;20352;-69
2023/04/29 08:05:19;;;;;;;;;;;;;;;20.10;42.47;101870.41;5132041;27;19915;-69
2023/04/29 08:07:44;;;;;;;;;;;;;;;20.12;42.65;101872.97;5135059;27;19995;-69
2023/04/29 08:10:10;;;;;;;;;;;;;;;20.12;42.26;101876.50;5136817;27;19912;-69
2023/04/29 08:12:35;;;;;;;;;;;;;;;20.13;42.29;101872.78;5131179;27;19918;-69
2023/04/29 08:15:00;;;;;;;;;;;;;;;20.15;42.25;101878.06;5120651;27;20487;-69
2023/04/29 08:17:25;;;;;;;;;;;;;;;20.16;42.24;101879.75;5136052;27;19916;-69
2023/04/29 08:19:50;;;;;;;;;;;;;;;20.17;42.35;101887.69;5136534;27;19950;-69
2023/04/29 08:22:16;;;;;;;;;;;;;;;20.18;42.51;101889.41;5140229;27;19983;-69
2023/04/29 08:24:41;;;;;;;;;;;;;;;20.20;42.22;101891.94;5133166;27;19978;-69
2023/04/29 08:27:06;;;;;;;;;;;;;;;20.22;42.16;101892.66;5135083;27;19915;-69
2023/04/29 08:29:32;;;;;;;;;;;;;;;20.23;42.15;101888.94;5132756;27;20006;-69
2023/04/29 08:31:57;;;;;;;;;;;;;;;20.23;42.07;101892.50;5133858;27;19911;-69
2023/04/29 08:34:22;;;;;;;;;;;;;;;20.25;42.20;101889.63;5134636;27;20311;-69
2023/04/29 08:36:47;;;;;;;;;;;;;;;20.27;42.26;101897.59;5136134;27;19945;-69
2023/04/29 08:39:13;;;;;;;;;;;;;;;20.28;41.89;101899.28;5130965;27;19931;-69
2023/04/29 08:41:38;;;;;;;;;;;;;;;20.28;41.96;101897.44;5135144;27;19919;-69
2023/04/29 08:44:03;;;;;;;;;;;;;;;20.29;42.20;101903.69;5136051;27;20282;-69
2023/04/29 08:46:28;;;;;;;;;;;;;;;20.30;42.13;101908.91;5126214;27;19911;-69
2023/04/29 08:48:55;;;;;;;;;;;;;;;20.29;42.08;101909.91;5142009;27;19916;-69
2023/04/29 08:51:20;;;;;;;;;;;;;;;20.30;41.94;101922.41;5133980;27;19979;-69
2023/04/29 08:53:45;;;;;;;;;;;;;;;20.31;42.13;101920.59;5134975;27;19911;-69
2023/04/29 08:56:19;;;;;;;;;;;;;;;20.30;41.98;101921.56;5135627;27;19912;-69
2023/04/29 08:58:45;;;;;;;;;;;;;;;20.30;42.26;101918.88;5133197;27;19912;-69
2023/04/29 09:01:10;;;;;;;;;;;;;;;20.30;42.29;101922.41;5125160;27;19958;-69
2023/04/29 09:03:43;;;;;;;;;;;;;;;20.31;41.88;101923.28;5116790;27;19915;-69
2023/04/29 09:06:09;;;;;;;;;;;;;;;20.30;41.86;101925.13;5114910;28;19912;-69
2023/04/29 09:08:34;;;;;;;;;;;;;;;20.31;42.01;101924.13;5132464;27;19972;-70
2023/04/29 09:11:00;;;;;;;;;;;;;;;20.31;41.93;101926.84;5119034;27;19912;-69
2023/04/29 09:13:25;;;;;;;;;;;;;;;20.32;42.19;101925.81;5125648;27;19923;-69
2023/04/29 09:15:51;;;;;;;;;;;;;;;20.32;41.87;101928.53;5139833;27;19938;-70
2023/04/29 09:18:34;;;;;;;;;;;;;;;20.33;42.02;101923.97;5134074;27;19918;-69
2023/04/29 09:21:03;;;;;;;;;;;;;;;20.33;42.03;101938.31;5134821;27;19972;-70
2023/04/29 09:23:38;;;;;;;;;;;;;;;20.32;42.00;101939.34;5114894;27;20346;-70
2023/04/29 09:26:03;;;;;;;;;;;;;;;20.33;42.33;101940.19;5133031;27;20480;-70
2023/04/29 09:28:28;;;;;;;;;;;;;;;20.34;42.12;101949.97;5135551;27;19919;-70
2023/04/29 09:30:53;;;;;;;;;;;;;;;20.37;42.10;101949.69;5134331;27;19975;-70
2023/04/29 09:33:19;;;;;;;;;;;;;;;20.37;42.13;101947.81;5131720;27;19920;-70
2023/04/29 09:35:45;;;;;;;;;;;;;;;20.39;42.35;101942.25;5131142;27;20008;-70
2023/04/29 09:38:14;;;;;;;;;;;;;;;20.40;41.96;101946.69;5133364;27;19912;-70
2023/04/29 09:40:40;;;;;;;;;;;;;;;20.40;42.19;101939.41;5134677;27;19922;-70
2023/04/29 09:43:12;;;;;;;;;;;;;;;20.41;42.36;101941.09;5135708;27;20013;-69
2023/04/29 09:45:38;;;;;;;;;;;;;;;20.42;42.35;101940.09;5138288;27;19915;-70
2023/04/29 09:48:04;;;;;;;;;;;;;;;19.93;42.43;101863.16;5137046;27;19915;-70
2023/04/29 09:50:30;;;;;;;;;;;;;;;20.45;42.27;101947.91;5134692;27;19918;-70
2023/04/29 09:52:55;;;;;;;;;;;;;;;20.48;42.22;101941.38;5127702;27;19955;-71
2023/04/29 09:55:20;;;;;;;;;;;;;;;20.50;42.33;101957.44;5131705;27;19916;-71
2023/04/29 09:57:45;;;;;;;;;;;;;;;20.52;42.38;101958.13;5129406;27;19918;-71
2023/04/29 10:00:12;;;;;;;;;;;;;;;20.54;42.27;101953.41;5132069;27;19911;-72
2023/04/29 10:02:37;;;;;;;;;;;;;;;20.57;42.30;101962.06;5134522;27;19958;-70
2023/04/29 10:05:02;;;;;;;;;;;;;;;20.58;42.22;101962.91;5118371;27;19915;-70
2023/04/29 10:07:28;;;;;;;;;;;;;;;20.59;42.46;101964.63;5129684;27;19961;-70
2023/04/29 10:09:53;;;;;;;;;;;;;;;20.60;42.52;101961.78;5117396;27;19912;-70
2023/04/29 10:12:19;;;;;;;;;;;;;;;20.62;42.36;101975.97;5125148;27;19922;-70
2023/04/29 10:14:47;;;;;;;;;;;;;;;20.63;42.71;101966.84;5133717;27;19922;-71
2023/04/29 10:17:17;;;;;;;;;;;;;;;20.65;42.47;101967.56;5119724;27;19920;-70
2023/04/29 10:19:52;;;;;;;;;;;;;;;20.69;42.49;101965.41;5131004;27;19916;-70
2023/04/29 10:22:41;;;;;;;;;;;;;;;20.70;42.84;101962.53;5131880;27;19975;-71
2023/04/29 10:25:06;;;;;;;;;;;;;;;20.71;42.54;101964.22;5116265;27;19923;-69
2023/04/29 10:27:31;;;;;;;;;;;;;;;20.74;42.55;101967.63;5112540;28;19936;-71
2023/04/29 10:29:57;;;;;;;;;;;;;;;20.76;42.67;101958.34;5112518;27;19911;-70
2023/04/29 10:32:22;;;;;;;;;;;;;;;20.80;42.61;101953.50;5135256;27;19955;-71
2023/04/29 10:34:48;;;;;;;;;;;;;;;20.81;42.96;101958.72;5123928;27;19995;-70
2023/04/29 10:37:15;;;;;;;;;;;;;;;20.82;42.66;101957.75;5115434;27;20721;-70
2023/04/29 10:39:59;;;;;;;;;;;;;;;20.83;42.68;101961.28;5133528;27;19937;-70
2023/04/29 10:42:28;;;;;;;;;;;;;;;20.83;42.85;101956.72;5132728;27;19943;-71
2023/04/29 10:45:12;;;;;;;;;;;;;;;20.84;42.91;101955.72;5117939;27;19915;-70
2023/04/29 10:47:37;;;;;;;;;;;;;;;20.84;42.84;101958.44;5129852;27;20348;-71
2023/04/29 10:50:03;;;;;;;;;;;;;;;20.85;42.64;101967.38;5134234;27;19924;-70
2023/04/29 10:52:28;;;;;;;;;;;;;;;20.84;43.02;101963.84;5128757;27;19912;-71
2023/04/29 10:55:03;;;;;;;;;;;;;;;20.86;42.87;101971.81;5130139;27;20015;-71
2023/04/29 10:57:28;;;;;;;;;;;;;;;20.86;42.84;101964.53;5111676;28;19912;-71
2023/04/29 10:59:53;;;;;;;;;;;;;;;20.88;42.85;101970.63;5114262;27;19934;-71
2023/04/29 11:02:19;;;;;;;;;;;;;;;20.88;42.78;101965.22;5130278;27;19924;-71
2023/04/29 11:05:03;;;;;;;;;;;;;;;20.88;42.73;101967.91;5116588;28;19933;-71
2023/04/29 11:07:28;;;;;;;;;;;;;;;20.88;43.15;101967.91;5131118;27;19911;-71
2023/04/29 11:09:55;;;;;;;;;;;;;;;20.89;43.01;101961.50;5134411;27;19982;-71
2023/04/29 11:12:20;;;;;;;;;;;;;;;20.90;43.10;101963.22;5135472;27;19912;-71
2023/04/29 11:14:48;;;;;;;;;;;;;;;20.47;43.29;101891.88;5130204;28;19919;-71
2023/04/29 11:17:14;;;;;;;;;;;;;;;20.91;43.20;101966.78;5133131;28;19915;-72
2023/04/29 11:19:40;;;;;;;;;;;;;;;20.92;42.98;101971.16;5128828;28;19933;-71
2023/04/29 11:22:17;;;;;;;;;;;;;;;20.92;42.98;101966.59;5129552;28;19916;-72
2023/04/29 11:24:50;;;;;;;;;;;;;;;20.91;43.22;101964.91;5129890;28;19920;-73
2023/04/29 11:27:15;;;;;;;;;;;;;;;20.91;43.15;101967.63;5131659;28;19916;-71
2023/04/29 11:29:40;;;;;;;;;;;;;;;20.92;42.93;101961.19;5112856;28;20032;-71
2023/04/29 11:32:06;;;;;;;;;;;;;;;20.92;42.92;101963.91;5128187;28;19912;-71
2023/04/29 11:34:31;;;;;;;;;;;;;;;20.92;42.88;101960.34;5130701;28;19964;-71
2023/04/29 11:36:56;;;;;;;;;;;;;;;20.93;43.07;101968.28;5129210;27;19927;-70
2023/04/29 11:39:21;;;;;;;;;;;;;;;20.95;43.18;101962.75;5135915;28;19931;-70
2023/04/29 11:41:48;;;;;;;;;;;;;;;20.95;42.88;101954.63;5122869;28;19912;-70
2023/04/29 11:44:13;;;;;;;;;;;;;;;20.96;43.22;101968.00;5135662;28;19916;-71
2023/04/29 11:46:38;;;;;;;;;;;;;;;20.99;43.30;101961.44;5129667;28;19919;-70
2023/04/29 11:49:03;;;;;;;;;;;;;;;20.97;43.30;101966.13;5128898;28;19979;-70
2023/04/29 11:51:28;;;;;;;;;;;;;;;20.97;43.34;101969.69;5133894;27;19918;-70
2023/04/29 11:53:54;;;;;;;;;;;;;;;20.97;43.18;101966.13;5129979;28;19954;-70
2023/04/29 11:56:25;;;;;;;;;;;;;;;20.96;42.97;101976.09;5127846;28;19911;-70
2023/04/29 11:58:57;;;;;;;;;;;;;;;20.97;42.84;101971.53;5098241;28;19912;-70
2023/04/29 12:01:22;;;;;;;;;;;;;;;21.00;43.21;101983.91;5131863;28;20017;-70
2023/04/29 12:03:48;;;;;;;;;;;;;;;21.00;43.28;101983.91;5124529;28;19912;-70
2023/04/29 12:06:13;;;;;;;;;;;;;;;21.00;43.32;101986.63;5137141;28;19916;-70
2023/04/29 12:08:39;;;;;;;;;;;;;;;21.01;43.19;101980.19;5128601;28;19915;-70
2023/04/29 12:11:05;;;;;;;;;;;;;;;21.02;43.21;101971.91;5135353;28;19998;-70
2023/04/29 12:13:30;;;;;;;;;;;;;;;21.03;42.96;101978.19;5131948;28;19927;-70
2023/04/29 12:15:56;;;;;;;;;;;;;;;21.03;43.26;101976.34;5132427;27;19915;-70
2023/04/29 12:18:22;;;;;;;;;;;;;;;21.05;43.02;101981.56;5128689;27;19916;-70
2023/04/29 12:20:47;;;;;;;;;;;;;;;21.04;42.94;101980.72;5114961;27;19934;-70
2023/04/29 12:23:21;;;;;;;;;;;;;;;21.04;43.20;101977.19;5119913;27;19915;-70
2023/04/29 12:25:50;;;;;;;;;;;;;;;21.06;43.19;101983.28;5131804;27;19916;-70
2023/04/29 12:28:16;;;;;;;;;;;;;;;21.07;43.05;101977.72;5135430;27;19919;-70
2023/04/29 12:30:45;;;;;;;;;;;;;;;21.09;42.93;101970.28;5130016;27;19926;-70